Time;durP1;ratioP1;P1;durP2;ratioP2;P2;SDS_P1;SDS_P2;PMS_P1;PMS_P2;Temp;Humidity;BMP_temperature;BMP_pressure;BME280_temperature;BME280_humidity;BME280_pressure;Samples;Min_cycle;Max_cycle;Signal;HPM_P1;HPM_P2
2022/06/18 00:02:15;;;;;;;9.80;5.57;;;20.30;99.90;;;;;;5048522;28;20908;-63
2022/06/18 00:04:42;;;;;;;8.90;5.30;;;20.30;99.90;;;;;;5047554;28;20391;-62
2022/06/18 00:07:11;;;;;;;13.77;5.30;;;20.30;99.90;;;;;;5049843;28;20397;-61
2022/06/18 00:09:42;;;;;;;9.98;5.40;;;20.30;99.90;;;;;;5049492;28;20381;-62
2022/06/18 00:15:18;;;;;;;9.88;5.43;;;20.40;99.90;;;;;;5047224;28;20399;-61
2022/06/18 00:17:44;;;;;;;10.23;5.40;;;20.40;99.90;;;;;;5046030;28;20399;-56
2022/06/18 00:20:11;;;;;;;10.30;5.60;;;20.30;99.90;;;;;;5048622;28;20903;-61
2022/06/18 00:22:37;;;;;;;10.40;5.50;;;20.30;99.90;;;;;;5047418;28;20401;-61
2022/06/18 00:25:28;;;;;;;10.65;5.82;;;20.20;99.90;;;;;;5047945;28;20429;-61
2022/06/18 00:27:54;;;;;;;11.65;5.80;;;20.10;99.90;;;;;;5051478;28;20394;-62
2022/06/18 00:30:23;;;;;;;10.05;5.53;;;19.90;99.90;;;;;;5031525;28;20761;-62
2022/06/18 00:32:49;;;;;;;10.25;5.93;;;19.80;99.90;;;;;;5049109;28;20854;-54
2022/06/18 00:35:15;;;;;;;9.07;5.05;;;19.80;99.90;;;;;;5048857;28;20389;-60
2022/06/18 00:37:43;;;;;;;10.27;5.70;;;19.70;99.90;;;;;;5049442;28;20420;-60
2022/06/18 00:40:17;;;;;;;11.67;6.03;;;19.70;99.90;;;;;;5048082;28;20416;-60
2022/06/18 00:42:44;;;;;;;11.85;5.50;;;19.50;99.90;;;;;;5048699;28;20403;-59
2022/06/18 00:45:13;;;;;;;11.23;5.65;;;19.40;99.90;;;;;;5048321;28;20528;-55
2022/06/18 00:48:02;;;;;;;8.30;5.00;;;19.40;99.90;;;;;;5046622;28;20393;-59
2022/06/18 00:50:48;;;;;;;13.15;5.85;;;19.40;99.90;;;;;;5047926;28;20443;-61
2022/06/18 00:53:18;;;;;;;11.48;5.80;;;19.50;99.90;;;;;;5046756;28;20393;-59
2022/06/18 00:55:54;;;;;;;10.50;5.70;;;19.60;99.90;;;;;;5047566;28;20397;-60
2022/06/18 00:58:47;;;;;;;9.85;5.25;;;19.50;99.90;;;;;;5046430;28;20621;-60
2022/06/18 01:01:21;;;;;;;10.13;5.63;;;19.50;99.90;;;;;;5047028;28;20934;-59
2022/06/18 01:03:48;;;;;;;10.27;6.15;;;19.50;99.90;;;;;;5048430;28;20389;-60
2022/06/18 01:06:21;;;;;;;10.30;5.80;;;19.50;99.90;;;;;;5047641;28;20397;-59
2022/06/18 01:08:55;;;;;;;9.98;5.60;;;19.50;99.90;;;;;;5048969;28;20398;-60
2022/06/18 01:11:28;;;;;;;9.40;5.50;;;19.40;99.90;;;;;;5046918;28;20465;-60
2022/06/18 01:13:54;;;;;;;11.05;5.40;;;19.40;99.90;;;;;;5047783;28;20619;-59
2022/06/18 01:16:21;;;;;;;10.07;5.57;;;19.30;99.90;;;;;;5048367;28;20389;-63
2022/06/18 01:18:49;;;;;;;9.88;5.50;;;19.30;99.90;;;;;;5048584;28;20401;-61
2022/06/18 01:21:22;;;;;;;9.40;5.00;;;19.40;99.90;;;;;;5048414;28;20415;-60
2022/06/18 01:24:10;;;;;;;9.95;4.97;;;19.40;99.90;;;;;;5048406;28;20800;-54
2022/06/18 01:26:36;;;;;;;9.23;4.95;;;19.20;99.90;;;;;;5048443;28;20488;-61
2022/06/18 01:29:02;;;;;;;10.30;5.28;;;19.20;99.90;;;;;;5029928;28;20964;-61
2022/06/18 01:31:28;;;;;;;9.00;4.90;;;19.20;99.90;;;;;;5048316;28;20418;-61
2022/06/18 01:33:54;;;;;;;8.70;5.20;;;19.10;99.90;;;;;;5047587;28;20382;-61
2022/06/18 01:36:20;;;;;;;9.43;4.80;;;19.10;99.90;;;;;;5048700;28;20757;-61
2022/06/18 01:38:46;;;;;;;9.40;5.00;;;19.20;99.90;;;;;;5052259;28;20408;-61
2022/06/18 01:44:11;;;;;;;10.05;5.28;;;19.20;99.90;;;;;;5050151;28;20711;-61
2022/06/18 01:46:41;;;;;;;9.95;5.40;;;19.10;99.90;;;;;;5052224;28;20381;-61
2022/06/18 01:49:11;;;;;;;8.75;5.03;;;19.00;99.90;;;;;;5051721;28;20487;-61
2022/06/18 01:51:40;;;;;;;9.95;5.40;;;19.00;99.90;;;;;;5049851;28;20421;-61
2022/06/18 01:54:19;;;;;;;11.10;5.30;;;19.00;99.90;;;;;;5051673;28;20412;-61
2022/06/18 01:56:51;;;;;;;8.80;5.80;;;18.90;99.90;;;;;;5050699;28;20393;-61
2022/06/18 01:59:22;;;;;;;11.32;5.35;;;18.80;99.90;;;;;;5051639;28;20503;-61
2022/06/18 02:01:50;;;;;;;9.50;5.18;;;18.80;99.90;;;;;;5052204;28;20405;-61
2022/06/18 02:04:18;;;;;;;11.38;4.82;;;18.80;99.90;;;;;;5051652;28;20476;-61
2022/06/18 02:06:45;;;;;;;9.85;4.93;;;18.80;99.90;;;;;;5052091;28;20406;-64
2022/06/18 02:09:29;;;;;;;9.38;5.18;;;18.70;99.90;;;;;;5051355;28;20393;-61
2022/06/18 02:11:56;;;;;;;10.77;4.80;;;18.60;99.90;;;;;;5050816;28;20420;-59
2022/06/18 02:14:25;;;;;;;11.90;5.43;;;18.40;99.90;;;;;;5051390;28;20878;-60
2022/06/18 02:16:53;;;;;;;9.65;4.65;;;18.30;1.00;;;;;;5051898;28;20403;-54
2022/06/18 02:19:21;;;;;;;9.57;4.80;;;18.30;1.00;;;;;;5051142;28;20413;-61
2022/06/18 02:21:54;;;;;;;9.77;5.20;;;18.30;1.00;;;;;;5051125;28;20949;-60
2022/06/18 02:24:20;;;;;;;10.77;4.45;;;18.30;1.00;;;;;;5048915;28;20503;-60
2022/06/18 02:26:47;;;;;;;9.35;4.60;;;18.20;1.00;;;;;;5051182;28;20443;-60
2022/06/18 02:29:26;;;;;;;8.52;4.50;;;18.20;1.00;;;;;;5050749;28;20374;-60
2022/06/18 02:31:52;;;;;;;10.27;4.90;;;18.20;1.00;;;;;;5051267;28;20411;-53
2022/06/18 02:34:23;;;;;;;8.73;4.63;;;18.40;1.00;;;;;;5047761;28;20503;-61
2022/06/18 02:36:48;;;;;;;9.00;4.90;;;18.40;1.00;;;;;;5050890;28;20385;-61
2022/06/18 02:39:29;;;;;;;9.32;5.00;;;18.40;1.00;;;;;;5050099;28;20882;-60
2022/06/18 02:42:04;;;;;;;9.53;4.70;;;18.20;1.00;;;;;;5050879;28;20856;-60
2022/06/18 02:44:30;;;;;;;8.40;4.80;;;18.00;76.50;;;;;;5050919;28;20386;-60
2022/06/18 02:46:59;;;;;;;9.07;4.75;;;17.90;92.60;;;;;;5050161;28;20866;-58
2022/06/18 02:49:25;;;;;;;11.13;5.07;;;17.90;43.90;;;;;;5050472;28;20775;-61
2022/06/18 02:51:50;;;;;;;11.07;4.90;;;17.80;99.90;;;;;;5050917;28;20384;-54
2022/06/18 02:54:19;;;;;;;11.10;5.13;;;17.90;1.00;;;;;;5049841;28;20448;-61
2022/06/18 02:56:46;;;;;;;9.95;4.80;;;17.90;1.00;;;;;;5050859;28;20874;-61
2022/06/18 02:59:12;;;;;;;9.67;4.97;;;18.00;1.00;;;;;;5050251;28;20924;-60
2022/06/18 03:01:38;;;;;;;8.75;4.78;;;18.10;1.00;;;;;;5050626;28;20386;-61
2022/06/18 03:04:04;;;;;;;8.95;4.97;;;18.10;1.00;;;;;;5050059;28;20412;-61
2022/06/18 03:06:33;;;;;;;10.10;4.93;;;18.10;1.00;;;;;;5051019;28;20382;-61
2022/06/18 03:08:59;;;;;;;7.93;4.50;;;18.10;1.00;;;;;;5047096;28;20390;-58
2022/06/18 03:14:13;;;;;;;9.45;5.00;;;18.10;1.00;;;;;;5048508;28;21107;-56
2022/06/18 03:16:39;;;;;;;9.25;5.00;;;18.20;1.00;;;;;;5050685;28;20826;-61
2022/06/18 03:19:06;;;;;;;9.80;5.05;;;18.20;1.00;;;;;;5049593;28;20409;-60
2022/06/18 03:21:43;;;;;;;10.45;5.00;;;18.20;1.00;;;;;;5050301;28;20779;-60
2022/06/18 03:24:10;;;;;;;10.02;4.85;;;18.10;1.00;;;;;;5050080;28;20483;-60
2022/06/18 03:26:36;;;;;;;10.20;4.80;;;18.20;1.00;;;;;;5050431;28;20517;-61
2022/06/18 03:29:02;;;;;;;8.80;4.60;;;18.10;1.00;;;;;;5049476;28;20885;-60
2022/06/18 03:31:29;;;;;;;9.13;4.87;;;18.10;1.00;;;;;;5049952;28;20876;-59
2022/06/18 03:33:55;;;;;;;8.77;4.82;;;18.00;1.00;;;;;;5049481;28;20433;-55
2022/06/18 03:36:21;;;;;;;8.20;4.70;;;18.00;1.00;;;;;;5050459;28;20404;-59
2022/06/18 03:38:47;;;;;;;8.68;4.60;;;18.00;1.00;;;;;;5049969;28;20523;-61
2022/06/18 03:41:14;;;;;;;10.77;4.70;;;18.10;1.00;;;;;;5049702;28;20984;-62
2022/06/18 03:43:40;;;;;;;8.60;4.57;;;18.10;1.00;;;;;;5049799;28;20385;-61
2022/06/18 03:46:13;;;;;;;9.80;5.10;;;18.20;1.00;;;;;;5049587;28;20389;-61
2022/06/18 03:48:46;;;;;;;9.00;4.70;;;18.20;1.00;;;;;;5031930;28;20493;-60
2022/06/18 03:51:13;;;;;;;8.23;4.35;;;18.10;1.00;;;;;;5049794;28;20385;-60
2022/06/18 03:53:40;;;;;;;8.80;4.70;;;18.10;1.00;;;;;;5050108;28;20897;-62
2022/06/18 03:56:06;;;;;;;8.60;4.70;;;18.00;51.60;;;;;;5031861;28;20409;-61
2022/06/18 03:58:32;;;;;;;9.80;4.72;;;19.00;99.90;;;;;;5049527;28;20464;-61
2022/06/18 04:00:57;;;;;;;14.93;5.32;;;18.00;99.90;;;;;;5048251;28;20414;-60
2022/06/18 04:03:23;;;;;;;8.38;4.50;;;17.90;99.90;;;;;;5049591;28;20817;-61
2022/06/18 04:05:49;;;;;;;9.98;4.95;;;18.00;99.90;;;;;;5031971;28;20615;-60
2022/06/18 04:08:20;;;;;;;8.40;4.67;;;18.10;99.90;;;;;;5030840;28;20500;-60
2022/06/18 04:10:46;;;;;;;8.80;4.68;;;18.10;96.50;;;;;;5032080;28;20785;-61
2022/06/18 04:13:12;;;;;;;8.30;4.57;;;18.20;7.30;;;;;;5049008;28;20397;-63
2022/06/18 04:15:37;;;;;;;8.55;4.47;;;18.30;29.60;;;;;;5049278;28;20381;-59
2022/06/18 04:18:04;;;;;;;9.00;5.50;;;18.30;1.00;;;;;;5048959;28;20416;-61
2022/06/18 04:20:36;;;;;;;10.75;5.40;;;18.50;1.00;;;;;;5049749;28;20417;-60
2022/06/18 04:23:03;;;;;;;11.43;5.10;;;18.50;1.00;;;;;;5046392;28;20484;-61
2022/06/18 04:25:29;;;;;;;12.00;5.65;;;18.50;1.00;;;;;;5049834;28;20389;-61
2022/06/18 04:27:57;;;;;;;8.85;5.28;;;18.60;1.00;;;;;;5048731;28;20389;-54
2022/06/18 04:30:25;;;;;;;13.50;5.67;;;18.70;1.00;;;;;;5048710;28;20385;-61
2022/06/18 04:32:51;;;;;;;9.20;5.68;;;18.80;1.00;;;;;;5049319;28;20393;-61
2022/06/18 04:35:17;;;;;;;9.90;5.80;;;18.90;1.00;;;;;;5045639;28;20389;-60
2022/06/18 04:37:44;;;;;;;8.57;4.67;;;19.00;1.00;;;;;;5049035;28;20393;-61
2022/06/18 04:40:19;;;;;;;9.70;5.70;;;19.00;1.00;;;;;;5028933;28;20405;-56
2022/06/18 04:42:45;;;;;;;8.73;4.80;;;19.20;1.00;;;;;;5047115;28;20439;-60
2022/06/18 04:45:11;;;;;;;9.82;5.30;;;19.40;1.00;;;;;;5047407;28;20401;-61
2022/06/18 04:47:37;;;;;;;8.60;4.70;;;19.60;1.00;;;;;;5048412;28;20389;-60
2022/06/18 04:50:04;;;;;;;10.23;4.80;;;19.80;1.00;;;;;;5047769;28;20879;-61
2022/06/18 04:52:30;;;;;;;11.27;4.85;;;20.00;1.00;;;;;;5048939;28;20468;-61
2022/06/18 04:54:56;;;;;;;8.37;4.60;;;20.30;1.00;;;;;;5048122;28;20412;-55
2022/06/18 04:57:21;;;;;;;9.67;4.50;;;21.50;99.90;;;;;;5048828;28;20465;-61
2022/06/18 04:59:48;;;;;;;11.07;4.80;;;21.20;99.90;;;;;;5048799;28;20412;-61
2022/06/18 05:02:20;;;;;;;9.97;4.53;;;21.80;99.90;;;;;;5047056;28;20690;-59
2022/06/18 05:04:46;;;;;;;9.33;4.50;;;22.40;99.90;;;;;;5048607;28;20396;-61
2022/06/18 05:07:11;;;;;;;8.38;4.80;;;23.00;99.90;;;;;;5047218;28;21320;-62
2022/06/18 05:09:37;;;;;;;9.15;4.75;;;23.90;99.90;;;;;;5048300;28;20909;-62
2022/06/18 05:12:03;;;;;;;9.27;4.50;;;24.60;99.90;;;;;;5047702;28;20735;-62
2022/06/18 05:14:30;;;;;;;8.48;4.90;;;25.30;99.90;;;;;;5048275;28;20385;-60
2022/06/18 05:16:57;;;;;;;7.40;4.10;;;26.10;99.90;;;;;;5048044;28;20447;-56
2022/06/18 05:19:26;;;;;;;8.38;4.72;;;27.00;99.90;;;;;;5048749;28;20401;-62
2022/06/18 05:21:51;;;;;;;10.13;4.50;;;27.20;99.90;;;;;;5048593;28;20476;-63
2022/06/18 05:24:18;;;;;;;8.82;4.43;;;27.60;99.90;;;;;;5045082;28;20497;-63
2022/06/18 05:26:48;;;;;;;7.90;4.65;;;28.20;99.90;;;;;;5048791;28;20378;-61
2022/06/18 05:29:15;;;;;;;8.60;5.20;;;28.60;99.90;;;;;;5047375;28;20461;-62
2022/06/18 05:31:41;;;;;;;9.27;4.70;;;29.10;99.90;;;;;;5048179;28;20473;-63
2022/06/18 05:34:07;;;;;;;8.80;4.90;;;29.60;99.90;;;;;;5048004;28;20480;-64
2022/06/18 05:36:32;;;;;;;9.43;5.10;;;30.00;99.90;;;;;;5030688;28;20401;-62
2022/06/18 05:38:59;;;;;;;9.55;5.40;;;30.50;99.90;;;;;;5029683;28;20755;-63
2022/06/18 05:41:26;;;;;;;9.20;5.50;;;30.80;99.90;;;;;;5048812;28;20441;-63
2022/06/18 05:43:52;;;;;;;8.45;5.40;;;30.50;99.90;;;;;;5048560;28;20866;-63
2022/06/18 05:46:17;;;;;;;10.52;5.55;;;30.30;99.90;;;;;;5029526;28;20463;-62
2022/06/18 05:48:43;;;;;;;8.60;4.80;;;30.10;99.90;;;;;;5048691;28;20771;-63
2022/06/18 05:51:09;;;;;;;9.43;5.70;;;30.20;99.90;;;;;;5047476;28;20388;-63
2022/06/18 05:53:34;;;;;;;7.90;5.40;;;30.40;99.90;;;;;;5048436;28;20727;-62
2022/06/18 05:56:00;;;;;;;7.50;5.20;;;30.80;99.90;;;;;;5045742;28;20763;-63
2022/06/18 05:58:26;;;;;;;7.90;5.40;;;30.40;99.90;;;;;;5050847;28;20456;-62
2022/06/18 06:00:52;;;;;;;8.85;4.85;;;30.50;99.90;;;;;;5048152;28;20382;-63
2022/06/18 06:03:18;;;;;;;9.97;5.50;;;31.00;99.90;;;;;;5027269;28;20881;-64
2022/06/18 06:05:43;;;;;;;8.80;5.70;;;31.50;99.90;;;;;;5044532;28;20874;-64
2022/06/18 06:08:13;;;;;;;8.40;4.90;;;31.90;99.90;;;;;;5049058;28;20389;-62
2022/06/18 06:13:25;;;;;;;9.20;5.70;;;32.10;99.90;;;;;;5045800;28;20443;-63
2022/06/18 06:15:52;;;;;;;7.63;5.47;;;32.40;99.90;;;;;;5047049;28;20408;-64
2022/06/18 06:18:20;;;;;;;8.97;5.33;;;32.80;99.90;;;;;;5046644;28;21074;-63
2022/06/18 06:20:48;;;;;;;8.17;6.50;;;32.90;99.90;;;;;;5048341;28;20496;-58
2022/06/18 06:23:14;;;;;;;9.85;6.03;;;32.80;99.90;;;;;;5046233;28;20432;-63
2022/06/18 06:25:42;;;;;;;8.27;6.25;;;32.40;99.90;;;;;;5051255;28;20401;-64
2022/06/18 06:28:22;;;;;;;9.02;5.45;;;32.60;99.90;;;;;;5048010;28;20430;-60
2022/06/18 06:30:49;;;;;;;9.60;5.10;;;32.80;99.90;;;;;;5050165;28;20505;-65
2022/06/18 06:33:14;;;;;;;8.77;6.10;;;33.10;99.90;;;;;;5032499;28;20552;-67
2022/06/18 06:35:42;;;;;;;11.00;6.50;;;33.50;99.90;;;;;;5052212;28;20401;-65
2022/06/18 06:38:10;;;;;;;9.40;5.38;;;34.10;1.00;;;;;;5051052;28;20523;-65
2022/06/18 06:40:36;;;;;;;8.40;6.30;;;33.90;1.00;;;;;;5034428;28;20500;-62
2022/06/18 06:43:02;;;;;;;8.40;6.70;;;34.20;1.00;;;;;;5032960;28;20540;-65
2022/06/18 06:45:31;;;;;;;9.83;5.97;;;34.30;1.00;;;;;;5032723;28;20414;-63
2022/06/18 06:47:59;;;;;;;8.00;4.90;;;34.50;1.00;;;;;;5030006;28;20473;-56
2022/06/18 06:50:27;;;;;;;9.10;5.25;;;35.10;1.00;;;;;;5026301;28;20804;-65
2022/06/18 06:52:53;;;;;;;8.80;4.97;;;35.70;1.00;;;;;;5049174;28;20486;-64
2022/06/18 06:58:08;;;;;;;8.00;4.40;;;37.10;1.00;;;;;;5050088;28;20471;-64
2022/06/18 07:00:38;;;;;;;8.70;7.40;;;37.70;99.90;;;;;;5045057;28;20547;-62
2022/06/18 07:03:03;;;;;;;10.03;8.00;;;37.80;99.90;;;;;;5049603;28;20402;-62
2022/06/18 07:05:29;;;;;;;8.73;7.33;;;38.10;99.90;;;;;;5050170;28;20408;-63
2022/06/18 07:07:55;;;;;;;9.55;8.15;;;38.00;99.90;;;;;;5049181;28;20763;-58
2022/06/18 07:10:21;;;;;;;7.40;4.10;;;38.00;99.90;;;;;;5048194;28;20439;-61
2022/06/18 07:12:46;;;;;;;7.53;4.47;;;37.20;99.90;;;;;;5049727;28;20801;-62
2022/06/18 07:15:13;;;;;;;9.18;4.80;;;37.10;99.90;;;;;;5048187;28;20467;-62
2022/06/18 07:17:40;;;;;;;8.50;4.88;;;36.90;99.90;;;;;;5050559;28;20393;-64
2022/06/18 07:20:09;;;;;;;9.77;4.20;;;37.50;99.90;;;;;;5048425;28;20424;-67
2022/06/18 07:22:35;;;;;;;12.65;5.00;;;37.90;99.90;;;;;;5050870;28;20481;-64
2022/06/18 07:25:01;;;;;;;10.60;5.00;;;38.10;99.90;;;;;;5050074;28;20498;-64
2022/06/18 07:27:29;;;;;;;7.78;4.50;;;38.20;99.90;;;;;;5050459;28;20398;-64
2022/06/18 07:29:56;;;;;;;8.43;4.35;;;37.40;99.90;;;;;;5050862;28;20378;-63
2022/06/18 07:32:21;;;;;;;9.10;4.60;;;37.70;99.90;;;;;;5032235;28;20770;-65
2022/06/18 07:34:47;;;;;;;7.87;4.17;;;38.50;99.90;;;;;;5050143;28;20525;-66
2022/06/18 07:37:13;;;;;;;8.70;7.50;;;38.60;99.90;;;;;;5049697;28;20386;-65
2022/06/18 07:39:39;;;;;;;7.30;4.53;;;39.50;99.90;;;;;;5050254;28;20413;-63
2022/06/18 07:42:06;;;;;;;8.75;4.40;;;39.60;99.90;;;;;;5050349;28;20437;-64
2022/06/18 07:44:32;;;;;;;7.80;4.00;;;39.50;99.90;;;;;;5050782;28;20439;-65
2022/06/18 07:46:58;;;;;;;7.80;4.47;;;39.40;99.90;;;;;;5049159;28;20405;-55
2022/06/18 07:49:25;;;;;;;7.90;4.20;;;39.40;99.90;;;;;;5047603;28;20489;-63
2022/06/18 07:51:51;;;;;;;7.60;4.50;;;39.60;99.90;;;;;;5048335;28;20455;-64
2022/06/18 07:54:18;;;;;;;7.78;4.13;;;40.20;99.90;;;;;;5047511;28;20409;-61
2022/06/18 07:56:44;;;;;;;8.80;4.07;;;39.90;99.90;;;;;;5045406;28;20731;-62
2022/06/18 07:59:10;;;;;;;9.55;4.10;;;40.00;99.90;;;;;;5048602;28;20448;-64
2022/06/18 08:01:37;;;;;;;7.50;4.43;;;40.30;99.90;;;;;;5053951;28;20413;-57
2022/06/18 08:04:02;;;;;;;7.75;4.28;;;40.50;99.90;;;;;;5047734;28;20523;-64
2022/06/18 08:06:29;;;;;;;7.05;4.00;;;41.20;1.00;;;;;;5049099;28;20472;-64
2022/06/18 08:08:54;;;;;;;7.03;4.07;;;41.70;1.00;;;;;;5049678;28;20505;-66
2022/06/18 08:11:20;;;;;;;6.60;3.92;;;41.40;1.00;;;;;;5023282;28;20528;-62
2022/06/18 08:13:49;;;;;;;9.30;8.30;;;41.80;99.90;;;;;;5048904;28;20413;-60
2022/06/18 08:16:16;;;;;;;8.40;7.03;;;41.30;99.90;;;;;;5035627;28;20401;-61
2022/06/18 08:18:43;;;;;;;8.50;5.15;;;41.00;99.90;;;;;;5048669;28;20456;-63
2022/06/18 08:21:18;;;;;;;6.70;4.00;;;40.90;99.90;;;;;;5032396;28;20397;-63
2022/06/18 08:23:45;;;;;;;6.88;3.70;;;41.30;99.90;;;;;;5046360;28;20588;-66
2022/06/18 08:26:10;;;;;;;8.30;7.50;;;41.10;99.90;;;;;;5048451;28;20401;-63
2022/06/18 08:28:37;;;;;;;8.20;7.20;;;39.80;99.90;;;;;;5042253;28;20439;-63
2022/06/18 08:31:05;;;;;;;9.13;6.57;;;39.70;99.90;;;;;;5042565;28;20470;-67
2022/06/18 08:33:31;;;;;;;8.05;5.90;;;39.80;99.90;;;;;;5042019;28;20458;-65
2022/06/18 08:36:00;;;;;;;7.30;5.93;;;40.20;99.90;;;;;;5045195;28;20401;-58
2022/06/18 08:38:25;;;;;;;9.93;8.93;;;39.80;99.90;;;;;;5045951;28;20424;-64
2022/06/18 08:41:34;;;;;;;8.38;4.88;;;38.80;99.90;;;;;;5048864;28;20814;-65
2022/06/18 08:44:22;;;;;;;8.63;4.63;;;39.40;99.90;;;;;;5043831;28;20460;-58
2022/06/18 08:46:59;;;;;;;8.67;6.27;;;40.80;99.90;;;;;;5047885;28;20377;-63
2022/06/18 08:49:30;;;;;;;8.77;3.50;;;40.30;1.00;;;;;;5044952;28;20961;-63
2022/06/18 08:52:20;;;;;;;7.22;4.18;;;41.70;99.90;;;;;;5046115;28;20402;-60
2022/06/18 08:55:01;;;;;;;7.33;5.70;;;43.00;99.90;;;;;;5044712;28;20440;-64
2022/06/18 08:57:35;;;;;;;7.78;4.20;;;43.50;99.90;;;;;;5047798;28;20389;-63
2022/06/18 09:00:37;;;;;;;8.38;7.30;;;42.80;99.90;;;;;;5043920;28;20401;-56
2022/06/18 09:03:08;;;;;;;9.30;8.40;;;41.60;99.90;;;;;;5036258;28;20485;-63
2022/06/18 09:06:17;;;;;;;8.30;6.53;;;42.00;99.90;;;;;;5047893;28;20424;-61
2022/06/18 09:09:11;;;;;;;6.82;3.90;;;42.60;99.90;;;;;;5045245;28;20403;-65
2022/06/18 09:12:00;;;;;;;6.80;3.50;;;42.50;99.90;;;;;;5046270;28;20412;-62
2022/06/18 09:14:40;;;;;;;6.82;3.38;;;42.50;99.90;;;;;;5045963;28;20492;-65
2022/06/18 09:17:13;;;;;;;7.20;3.73;;;42.30;99.90;;;;;;5045990;28;20875;-63
2022/06/18 09:19:42;;;;;;;8.13;3.90;;;42.00;99.90;;;;;;5047622;28;21055;-62
2022/06/18 09:22:16;;;;;;;9.18;6.70;;;41.50;99.90;;;;;;5048152;28;20393;-63
2022/06/18 09:24:45;;;;;;;7.75;6.60;;;41.40;99.90;;;;;;5027213;28;20461;-66
2022/06/18 09:27:33;;;;;;;6.97;3.40;;;42.70;99.90;;;;;;5027486;28;20410;-64
2022/06/18 09:30:17;;;;;;;6.85;3.47;;;43.10;99.90;;;;;;5035185;28;20397;-55
2022/06/18 09:33:13;;;;;;;7.28;3.50;;;43.10;99.90;;;;;;5029877;28;20422;-64
2022/06/18 09:36:09;;;;;;;10.27;7.10;;;42.10;99.90;;;;;;5027425;28;20379;-61
2022/06/18 09:38:49;;;;;;;7.90;5.00;;;41.80;99.90;;;;;;5027947;28;20399;-61
2022/06/18 09:41:21;;;;;;;6.73;3.33;;;42.20;99.90;;;;;;5028261;28;20872;-62
2022/06/18 09:44:07;;;;;;;6.00;3.60;;;42.30;99.90;;;;;;5026513;28;20413;-60
2022/06/18 09:46:50;;;;;;;7.60;3.38;;;42.60;99.90;;;;;;5029033;28;20394;-60
2022/06/18 09:49:16;;;;;;;7.97;3.00;;;43.40;99.90;;;;;;5027112;28;20426;-64
2022/06/18 09:54:28;;;;;;;6.35;2.72;;;42.80;99.90;;;;;;5026566;28;20457;-62
2022/06/18 09:56:58;;;;;;;7.30;2.90;;;43.10;99.90;;;;;;5026087;28;20401;-65
2022/06/18 09:59:30;;;;;;;7.33;2.93;;;43.70;99.90;;;;;;5025467;28;20414;-64
2022/06/18 10:01:56;;;;;;;8.70;3.20;;;43.70;99.90;;;;;;5031685;28;20887;-65
2022/06/18 10:07:23;;;;;;;8.70;3.27;;;42.60;99.90;;;;;;5030919;28;20437;-64
2022/06/18 10:09:53;;;;;;;7.80;3.10;;;42.30;99.90;;;;;;5029566;28;20387;-64
2022/06/18 10:12:25;;;;;;;6.35;2.58;;;42.60;99.90;;;;;;5030461;28;20879;-65
2022/06/18 10:14:59;;;;;;;7.50;2.80;;;42.80;99.90;;;;;;5027437;28;20441;-63
2022/06/18 10:17:44;;;;;;;6.80;2.80;;;42.50;99.90;;;;;;5027857;28;20422;-64
2022/06/18 10:20:37;;;;;;;7.00;2.30;;;42.30;99.90;;;;;;5031622;28;20903;-66
2022/06/18 10:23:30;;;;;;;5.97;2.30;;;42.30;99.90;;;;;;5027470;28;20466;-57
2022/06/18 10:26:40;;;;;;;7.50;2.80;;;42.50;99.90;;;;;;5067589;28;20849;-65
2022/06/18 10:29:28;;;;;;;8.43;2.47;;;42.30;99.90;;;;;;5056896;28;20459;-63
2022/06/18 10:32:37;;;;;;;7.35;2.90;;;42.10;99.90;;;;;;5055546;28;20389;-64
2022/06/18 10:35:06;;;;;;;7.75;2.70;;;40.70;99.90;;;;;;5005334;28;20389;-60
2022/06/18 10:37:59;;;;;;;9.10;6.60;;;40.10;99.90;;;;;;5051391;28;20902;-68
2022/06/18 10:41:05;;;;;;;8.30;5.38;;;39.80;99.90;;;;;;5051394;28;20404;-70
2022/06/18 10:43:58;;;;;;;6.60;5.63;;;39.40;99.90;;;;;;5047158;28;20402;-65
2022/06/18 10:46:24;;;;;;;8.02;6.03;;;38.70;99.90;;;;;;5048805;28;20408;-63
2022/06/18 10:48:57;;;;;;;7.97;5.18;;;38.30;99.90;;;;;;5049742;28;20434;-67
2022/06/18 10:51:26;;;;;;;7.80;5.80;;;38.10;99.90;;;;;;5050783;28;20402;-67
2022/06/18 10:53:58;;;;;;;7.82;6.40;;;37.90;99.90;;;;;;5052208;28;20417;-67
2022/06/18 10:56:30;;;;;;;8.10;7.20;;;37.50;99.90;;;;;;5050697;28;20393;-66
2022/06/18 10:59:05;;;;;;;7.60;6.80;;;37.30;99.90;;;;;;5056662;28;20415;-67
2022/06/18 11:01:47;;;;;;;9.35;6.15;;;37.50;99.90;;;;;;5032459;28;20893;-66
2022/06/18 11:04:18;;;;;;;11.70;8.82;;;37.20;99.90;;;;;;5049739;28;20404;-68
2022/06/18 11:06:45;;;;;;;15.70;10.65;;;37.00;99.90;;;;;;5049614;28;20436;-68
2022/06/18 11:09:31;;;;;;;12.10;8.90;;;37.30;99.90;;;;;;5028777;28;20437;-68
2022/06/18 11:12:07;;;;;;;9.35;6.70;;;37.50;99.90;;;;;;5046979;28;20434;-67
2022/06/18 11:14:40;;;;;;;18.48;11.77;;;37.60;99.90;;;;;;5048595;28;20401;-66
2022/06/18 11:17:22;;;;;;;8.20;5.90;;;37.40;99.90;;;;;;5050233;28;20447;-63
2022/06/18 11:19:50;;;;;;;7.70;6.60;;;37.10;99.90;;;;;;5051025;28;20414;-62
2022/06/18 11:22:23;;;;;;;8.82;6.63;;;37.00;99.90;;;;;;5050248;28;20390;-64
2022/06/18 11:24:55;;;;;;;8.20;6.97;;;37.30;99.90;;;;;;5051031;28;20421;-64
2022/06/18 11:27:21;;;;;;;12.88;7.90;;;37.20;99.90;;;;;;5050040;28;20564;-63
2022/06/18 11:29:52;;;;;;;8.27;7.35;;;37.10;99.90;;;;;;5050800;28;20385;-64
2022/06/18 11:32:37;;;;;;;10.98;7.80;;;37.30;99.90;;;;;;5050111;28;20401;-64
2022/06/18 11:35:23;;;;;;;7.03;5.57;;;37.20;99.90;;;;;;5050437;28;20378;-55
2022/06/18 11:38:16;;;;;;;7.95;6.47;;;36.90;99.90;;;;;;5050480;28;20382;-65
2022/06/18 11:40:55;;;;;;;7.78;6.70;;;36.90;99.90;;;;;;5050788;28;20488;-63
2022/06/18 11:43:27;;;;;;;7.38;6.30;;;36.70;99.90;;;;;;5030496;28;20499;-65
2022/06/18 11:46:00;;;;;;;7.70;6.20;;;36.60;99.90;;;;;;5031257;28;20390;-68
2022/06/18 11:48:50;;;;;;;7.80;6.40;;;36.80;99.90;;;;;;5041412;28;20719;-63
2022/06/18 11:51:38;;;;;;;8.50;5.80;;;36.70;99.90;;;;;;5045550;28;20405;-64
2022/06/18 11:54:22;;;;;;;8.73;6.63;;;36.80;99.90;;;;;;5047087;28;20412;-57
2022/06/18 11:56:58;;;;;;;9.50;7.32;;;36.70;99.90;;;;;;5046420;28;20489;-63
2022/06/18 11:59:27;;;;;;;9.48;5.28;;;36.60;99.90;;;;;;5048425;28;20405;-64
2022/06/18 12:01:59;;;;;;;8.70;5.73;;;36.50;99.90;;;;;;5048149;28;20401;-62
2022/06/18 12:04:34;;;;;;;7.43;5.60;;;36.30;99.90;;;;;;5043832;28;20398;-63
2022/06/18 12:07:00;;;;;;;8.98;6.60;;;36.40;99.90;;;;;;5045774;28;20412;-61
2022/06/18 12:09:28;;;;;;;8.60;6.20;;;36.80;99.90;;;;;;5047155;28;20401;-64
2022/06/18 12:12:21;;;;;;;9.27;6.80;;;37.00;99.90;;;;;;5048565;28;20412;-60
2022/06/18 12:14:52;;;;;;;8.55;6.95;;;37.20;99.90;;;;;;5047680;28;20401;-63
2022/06/18 12:17:25;;;;;;;7.93;6.07;;;37.30;99.90;;;;;;5044108;28;20441;-64
2022/06/18 12:20:25;;;;;;;7.75;6.10;;;37.40;99.90;;;;;;5046958;28;20504;-59
2022/06/18 12:23:15;;;;;;;8.73;6.10;;;37.20;99.90;;;;;;5023419;28;20508;-63
2022/06/18 12:25:45;;;;;;;8.60;6.07;;;37.20;99.90;;;;;;5046362;28;20420;-64
2022/06/18 12:28:32;;;;;;;10.90;6.78;;;37.20;99.90;;;;;;5045445;28;20488;-64
2022/06/18 12:31:12;;;;;;;9.85;6.90;;;37.20;99.90;;;;;;5046359;28;20401;-62
2022/06/18 12:33:46;;;;;;;8.43;7.30;;;36.70;99.90;;;;;;5046967;28;20409;-62
2022/06/18 12:36:25;;;;;;;11.90;7.10;;;36.50;99.90;;;;;;5046366;28;20472;-65
2022/06/18 12:39:10;;;;;;;9.50;6.40;;;36.60;99.90;;;;;;5047490;28;20421;-65
2022/06/18 12:41:45;;;;;;;9.40;7.10;;;36.60;99.90;;;;;;5045622;28;20405;-64
2022/06/18 12:44:31;;;;;;;10.02;6.00;;;36.60;99.90;;;;;;5043201;28;20746;-65
2022/06/18 12:47:24;;;;;;;10.38;7.15;;;36.80;99.90;;;;;;5046731;28;20409;-64
2022/06/18 12:50:08;;;;;;;10.65;7.25;;;36.70;99.90;;;;;;5044395;28;20501;-64
2022/06/18 12:52:39;;;;;;;12.25;6.50;;;37.00;99.90;;;;;;5046838;28;20405;-62
2022/06/18 12:55:07;;;;;;;10.00;6.70;;;36.90;99.90;;;;;;5046573;28;20432;-57
2022/06/18 12:58:02;;;;;;;12.05;6.40;;;36.80;99.90;;;;;;5046236;28;20500;-60
2022/06/18 13:00:45;;;;;;;9.13;6.60;;;36.50;99.90;;;;;;4981055;28;20422;-61
2022/06/18 13:03:37;;;;;;;10.77;7.15;;;36.50;99.90;;;;;;5044451;28;20417;-60
2022/06/18 13:06:42;;;;;;;14.17;6.93;;;36.80;99.90;;;;;;5044346;28;20464;-56
2022/06/18 13:09:44;;;;;;;14.40;7.13;;;37.00;99.90;;;;;;4945047;28;20433;-60
2022/06/18 13:12:22;;;;;;;11.70;6.73;;;36.80;99.90;;;;;;5045354;28;20485;-61
2022/06/18 13:15:07;;;;;;;14.13;7.38;;;36.80;99.90;;;;;;5046071;28;20985;-58
2022/06/18 13:17:55;;;;;;;14.50;7.82;;;36.70;99.90;;;;;;5045412;28;20443;-60
2022/06/18 13:20:29;;;;;;;10.18;6.40;;;36.80;99.90;;;;;;5046452;28;20709;-61
2022/06/18 13:22:55;;;;;;;13.70;7.30;;;37.10;99.90;;;;;;5046999;28;20507;-61
2022/06/18 13:28:26;;;;;;;15.50;7.70;;;36.90;99.90;;;;;;5045183;28;21242;-60
2022/06/18 13:31:22;;;;;;;20.90;8.20;;;37.10;99.90;;;;;;5044945;28;20397;-60
2022/06/18 13:34:14;;;;;;;15.77;7.60;;;37.30;99.90;;;;;;5045322;28;20402;-61
2022/06/18 13:37:01;;;;;;;14.77;8.40;;;36.80;99.90;;;;;;5045568;28;20440;-59